Yuzanmaru — JD2427 — position and weather

sailwx.info

Track history (hours):
 
Tides and Currents Weather Stations Pressure Air Temp Water Temp Dewpoint Dewpoint Depression Visibility Wind Speed Wind Dir Waves Ship Positions

Yuzanmaru

Last reported at 2017-Nov-19 03:45 UTC. Time now 2017-Nov-21 19:13 UTC.
Position N 34°07' E 135°01'.

Length 74 m; draft 5.2 m.

Type: Cargo ship. MMSI: 431000189.

Date/timePositionNaut miles runAvg speedWind from/ knotsBaromVisibWave heightAir tempDewpointWater temp
2017-Nov-19 03:45N 34°07' E 135°01'312.5
2017-Nov-19 03:30N 34°09' E 135°02'611.5
2017-Nov-19 03:00N 34°14' E 135°05'2 4.2
2017-Nov-19 02:30N 34°14' E 135°08'0 0.0
2017-Nov-19 02:00N 34°14' E 135°08'0 0.0
2017-Nov-19 01:30N 34°14' E 135°08'0 0.0
2017-Nov-19 01:00N 34°14' E 135°08'0 0.0
2017-Nov-19 00:30N 34°14' E 135°08'0 0.0
2017-Nov-19 00:00N 34°14' E 135°08'0 0.0
2017-Nov-18 23:31N 34°14' E 135°08'0 0.0
2017-Nov-18 23:01N 34°14' E 135°08'0 0.0
2017-Nov-18 22:30N 34°14' E 135°08'0 0.0
2017-Nov-18 22:00N 34°14' E 135°08'0 0.0
2017-Nov-18 21:30N 34°14' E 135°08'0 0.0
2017-Nov-18 21:01N 34°14' E 135°08'0 0.0
2017-Nov-18 20:30N 34°14' E 135°08'0 0.0
2017-Nov-18 20:00N 34°14' E 135°08'0 0.0
2017-Nov-18 19:30N 34°14' E 135°08'0 0.0
2017-Nov-18 19:00N 34°14' E 135°08'0 0.0
2017-Nov-18 18:30N 34°14' E 135°08'0 0.0
2017-Nov-18 18:01N 34°14' E 135°08'0 0.0
2017-Nov-18 17:30N 34°14' E 135°08'0 0.0
2017-Nov-18 17:00N 34°14' E 135°08'0 0.0
2017-Nov-18 16:31N 34°14' E 135°08'0 0.0
2017-Nov-18 16:01N 34°14' E 135°08'0 0.4
2017-Nov-18 15:30N 34°14' E 135°08'3 6.5
2017-Nov-18 15:00N 34°12' E 135°04'510.2
2017-Nov-18 14:30N 34°08' E 135°02'3 0.1
2017-Nov-17 01:58N 34°05' E 134°59'612.7
2017-Nov-17 01:30N 34°11' E 135°02'510.2
2017-Nov-17 01:00N 34°14' E 135°06'1 2.7
2017-Nov-17 00:30N 34°14' E 135°08'0 0.0
2017-Nov-17 00:00N 34°14' E 135°08'0 0.0
2017-Nov-16 23:30N 34°14' E 135°08'0 0.0
2017-Nov-16 23:01N 34°14' E 135°08'0 0.0
2017-Nov-16 22:31N 34°14' E 135°08'0 0.0
2017-Nov-16 22:00N 34°14' E 135°08'0 0.0
2017-Nov-16 21:31N 34°14' E 135°08'0 0.0
2017-Nov-16 21:00N 34°14' E 135°08'0 0.0
2017-Nov-16 20:30N 34°14' E 135°08'0 0.0
2017-Nov-16 20:00N 34°14' E 135°08'0 0.0
2017-Nov-16 19:30N 34°14' E 135°08'0 0.0
2017-Nov-16 19:00N 34°14' E 135°08'0 0.0
2017-Nov-16 18:31N 34°14' E 135°08'0 0.0
2017-Nov-16 18:00N 34°14' E 135°08'0 0.0
2017-Nov-16 17:31N 34°14' E 135°08'0 0.0
2017-Nov-16 17:00N 34°14' E 135°08'0 0.0
2017-Nov-16 16:30N 34°14' E 135°08'0 0.0
2017-Nov-16 16:00N 34°14' E 135°08'0 0.0
2017-Nov-16 15:30N 34°14' E 135°08'0 0.0
2017-Nov-16 15:00N 34°14' E 135°08'0 0.0
2017-Nov-16 14:30N 34°14' E 135°08'0 0.0
2017-Nov-16 14:01N 34°14' E 135°08'0 0.0
2017-Nov-16 13:30N 34°14' E 135°08'0 0.0
2017-Nov-16 13:00N 34°14' E 135°08'0 0.0
2017-Nov-16 12:31N 34°14' E 135°08'0 0.0
2017-Nov-16 12:00N 34°14' E 135°08'2 4.2
2017-Nov-16 11:30N 34°14' E 135°05'611.6
2017-Nov-16 11:00N 34°09' E 135°02'2 0.0
2017-Nov-14 14:29N 34°08' E 135°01'612.6
2017-Nov-14 14:00N 34°13' E 135°04'3 5.8
2017-Nov-14 13:30N 34°14' E 135°08'0 0.0
2017-Nov-14 13:00N 34°14' E 135°08'0 0.0
2017-Nov-14 12:30N 34°14' E 135°08'0 0.0
2017-Nov-14 12:00N 34°14' E 135°08'0 0.0
2017-Nov-14 11:30N 34°14' E 135°08'0 0.0
2017-Nov-14 11:01N 34°14' E 135°08'0 0.0
2017-Nov-14 10:30N 34°14' E 135°08'0 0.0
2017-Nov-14 10:01N 34°14' E 135°08'0 0.0
2017-Nov-14 09:31N 34°14' E 135°08'0 0.0
2017-Nov-14 09:00N 34°14' E 135°08'0 0.0
2017-Nov-14 08:31N 34°14' E 135°08'0 0.0
2017-Nov-14 08:00N 34°14' E 135°08'0 0.0
2017-Nov-14 07:30N 34°14' E 135°08'0 0.0
2017-Nov-14 07:00N 34°14' E 135°08'0 0.0
2017-Nov-14 06:31N 34°14' E 135°08'0 0.0
2017-Nov-14 06:01N 34°14' E 135°08'0 0.0
2017-Nov-14 05:31N 34°14' E 135°08'0 0.0
2017-Nov-14 05:00N 34°14' E 135°08'0 0.0
2017-Nov-14 04:30N 34°14' E 135°08'0 0.0
2017-Nov-14 04:00N 34°14' E 135°08'0 0.0
2017-Nov-14 03:31N 34°14' E 135°08'0 0.0
2017-Nov-14 03:00N 34°14' E 135°08'0 0.0
2017-Nov-14 02:30N 34°14' E 135°08'0 0.0
2017-Nov-14 02:01N 34°14' E 135°08'0 0.0
2017-Nov-14 01:31N 34°14' E 135°08'0 0.0
2017-Nov-14 01:00N 34°14' E 135°08'0 0.0
2017-Nov-14 00:31N 34°14' E 135°08'0 0.0
2017-Nov-14 00:00N 34°14' E 135°08'2 3.0
2017-Nov-13 23:30N 34°15' E 135°06'0 0.0
2017-Nov-13 23:00N 34°15' E 135°06'0 0.1
2017-Nov-13 22:31N 34°15' E 135°06'5 9.1
2017-Nov-13 22:00N 34°11' E 135°03'  
2017-Nov-11 04:12N 34°09' E 135°02'212.4
2017-Nov-11 04:01N 34°11' E 135°03'5 9.2
2017-Nov-11 03:31N 34°14' E 135°07'1 1.7
2017-Nov-11 03:01N 34°14' E 135°08'0 0.0
2017-Nov-11 02:30N 34°14' E 135°08'0 0.0
2017-Nov-11 02:00N 34°14' E 135°08'0 0.0
2017-Nov-11 01:31N 34°14' E 135°08'0 0.0
2017-Nov-11 01:01N 34°14' E 135°08'0 0.0
2017-Nov-11 00:31N 34°14' E 135°08'0 0.0
2017-Nov-11 00:00N 34°14' E 135°08'0 0.0
2017-Nov-10 23:31N 34°14' E 135°08'0 0.0
2017-Nov-10 23:00N 34°14' E 135°08'0 0.0
2017-Nov-10 22:30N 34°14' E 135°08'0 0.0
2017-Nov-10 22:01N 34°14' E 135°08'0 0.0
2017-Nov-10 21:30N 34°14' E 135°08'0 0.0
2017-Nov-10 21:00N 34°14' E 135°08'0 0.0
2017-Nov-10 20:31N 34°14' E 135°08'0 0.0
2017-Nov-10 20:00N 34°14' E 135°08'0 0.0
2017-Nov-10 19:30N 34°14' E 135°08'0 0.0
2017-Nov-10 19:00N 34°14' E 135°08'0 0.0
2017-Nov-10 18:31N 34°14' E 135°08'0 0.0
2017-Nov-10 18:00N 34°14' E 135°08'0 0.0
2017-Nov-10 17:31N 34°14' E 135°08'0 0.0
2017-Nov-10 17:01N 34°14' E 135°08'0 0.0
2017-Nov-10 16:30N 34°14' E 135°08'0 0.0
2017-Nov-10 16:00N 34°14' E 135°08'0 0.0
2017-Nov-10 15:30N 34°14' E 135°08'0 0.0
2017-Nov-10 15:00N 34°14' E 135°08'1 1.0
2017-Nov-10 14:31N 34°14' E 135°07'4 8.6
2017-Nov-10 14:01N 34°11' E 135°03'5 0.2
2017-Nov-09 08:11N 34°07' E 135°01'313.1
2017-Nov-09 07:59N 34°09' E 135°02'611.7
2017-Nov-09 07:31N 34°14' E 135°05'2 3.9
2017-Nov-09 07:00N 34°14' E 135°08'0 0.0
2017-Nov-09 06:31N 34°14' E 135°08'0 0.0
2017-Nov-09 06:00N 34°14' E 135°08'0 0.0
2017-Nov-09 05:30N 34°14' E 135°08'0 0.0
2017-Nov-09 05:00N 34°14' E 135°08'0 0.0
2017-Nov-09 04:30N 34°14' E 135°08'0 0.0
2017-Nov-09 04:01N 34°14' E 135°08'  
Track history (hours):
 
Tides and Currents Weather Stations Pressure Air Temp Water Temp Dewpoint Dewpoint Depression Visibility Wind Speed Wind Dir Waves Ship Positions

Yuzanmaru

Last reported at 2017-Nov-19 03:45 UTC. Time now 2017-Nov-21 19:13 UTC.
Position N 34°07' E 135°01'.

Length 74 m; draft 5.2 m.

Type: Cargo ship. MMSI: 431000189.

Date/timePositionNaut miles runAvg speedWind from/ knotsBaromVisibWave heightAir tempDewpointWater temp
2017-Nov-19 03:45N 34°07' E 135°01'312.5
2017-Nov-19 03:30N 34°09' E 135°02'611.5
2017-Nov-19 03:00N 34°14' E 135°05'2 4.2
2017-Nov-19 02:30N 34°14' E 135°08'0 0.0
2017-Nov-19 02:00N 34°14' E 135°08'0 0.0
2017-Nov-19 01:30N 34°14' E 135°08'0 0.0
2017-Nov-19 01:00N 34°14' E 135°08'0 0.0
2017-Nov-19 00:30N 34°14' E 135°08'0 0.0
2017-Nov-19 00:00N 34°14' E 135°08'0 0.0
2017-Nov-18 23:31N 34°14' E 135°08'0 0.0
2017-Nov-18 23:01N 34°14' E 135°08'0 0.0
2017-Nov-18 22:30N 34°14' E 135°08'0 0.0
2017-Nov-18 22:00N 34°14' E 135°08'0 0.0
2017-Nov-18 21:30N 34°14' E 135°08'0 0.0
2017-Nov-18 21:01N 34°14' E 135°08'0 0.0
2017-Nov-18 20:30N 34°14' E 135°08'0 0.0
2017-Nov-18 20:00N 34°14' E 135°08'0 0.0
2017-Nov-18 19:30N 34°14' E 135°08'0 0.0
2017-Nov-18 19:00N 34°14' E 135°08'0 0.0
2017-Nov-18 18:30N 34°14' E 135°08'0 0.0
2017-Nov-18 18:01N 34°14' E 135°08'0 0.0
2017-Nov-18 17:30N 34°14' E 135°08'0 0.0
2017-Nov-18 17:00N 34°14' E 135°08'0 0.0
2017-Nov-18 16:31N 34°14' E 135°08'0 0.0
2017-Nov-18 16:01N 34°14' E 135°08'0 0.4
2017-Nov-18 15:30N 34°14' E 135°08'3 6.5
2017-Nov-18 15:00N 34°12' E 135°04'510.2
2017-Nov-18 14:30N 34°08' E 135°02'3 0.1
2017-Nov-17 01:58N 34°05' E 134°59'612.7
2017-Nov-17 01:30N 34°11' E 135°02'510.2
2017-Nov-17 01:00N 34°14' E 135°06'1 2.7
2017-Nov-17 00:30N 34°14' E 135°08'0 0.0
2017-Nov-17 00:00N 34°14' E 135°08'0 0.0
2017-Nov-16 23:30N 34°14' E 135°08'0 0.0
2017-Nov-16 23:01N 34°14' E 135°08'0 0.0
2017-Nov-16 22:31N 34°14' E 135°08'0 0.0
2017-Nov-16 22:00N 34°14' E 135°08'0 0.0
2017-Nov-16 21:31N 34°14' E 135°08'0 0.0
2017-Nov-16 21:00N 34°14' E 135°08'0 0.0
2017-Nov-16 20:30N 34°14' E 135°08'0 0.0
2017-Nov-16 20:00N 34°14' E 135°08'0 0.0
2017-Nov-16 19:30N 34°14' E 135°08'0 0.0
2017-Nov-16 19:00N 34°14' E 135°08'0 0.0
2017-Nov-16 18:31N 34°14' E 135°08'0 0.0
2017-Nov-16 18:00N 34°14' E 135°08'0 0.0
2017-Nov-16 17:31N 34°14' E 135°08'0 0.0
2017-Nov-16 17:00N 34°14' E 135°08'0 0.0
2017-Nov-16 16:30N 34°14' E 135°08'0 0.0
2017-Nov-16 16:00N 34°14' E 135°08'0 0.0
2017-Nov-16 15:30N 34°14' E 135°08'0 0.0
2017-Nov-16 15:00N 34°14' E 135°08'0 0.0
2017-Nov-16 14:30N 34°14' E 135°08'0 0.0
2017-Nov-16 14:01N 34°14' E 135°08'0 0.0
2017-Nov-16 13:30N 34°14' E 135°08'0 0.0
2017-Nov-16 13:00N 34°14' E 135°08'0 0.0
2017-Nov-16 12:31N 34°14' E 135°08'0 0.0
2017-Nov-16 12:00N 34°14' E 135°08'2 4.2
2017-Nov-16 11:30N 34°14' E 135°05'611.6
2017-Nov-16 11:00N 34°09' E 135°02'2 0.0
2017-Nov-14 14:29N 34°08' E 135°01'612.6
2017-Nov-14 14:00N 34°13' E 135°04'3 5.8
2017-Nov-14 13:30N 34°14' E 135°08'0 0.0
2017-Nov-14 13:00N 34°14' E 135°08'0 0.0
2017-Nov-14 12:30N 34°14' E 135°08'0 0.0
2017-Nov-14 12:00N 34°14' E 135°08'0 0.0
2017-Nov-14 11:30N 34°14' E 135°08'0 0.0
2017-Nov-14 11:01N 34°14' E 135°08'0 0.0
2017-Nov-14 10:30N 34°14' E 135°08'0 0.0
2017-Nov-14 10:01N 34°14' E 135°08'0 0.0
2017-Nov-14 09:31N 34°14' E 135°08'0 0.0
2017-Nov-14 09:00N 34°14' E 135°08'0 0.0
2017-Nov-14 08:31N 34°14' E 135°08'0 0.0
2017-Nov-14 08:00N 34°14' E 135°08'0 0.0
2017-Nov-14 07:30N 34°14' E 135°08'0 0.0
2017-Nov-14 07:00N 34°14' E 135°08'0 0.0
2017-Nov-14 06:31N 34°14' E 135°08'0 0.0
2017-Nov-14 06:01N 34°14' E 135°08'0 0.0
2017-Nov-14 05:31N 34°14' E 135°08'0 0.0
2017-Nov-14 05:00N 34°14' E 135°08'0 0.0
2017-Nov-14 04:30N 34°14' E 135°08'0 0.0
2017-Nov-14 04:00N 34°14' E 135°08'0 0.0
2017-Nov-14 03:31N 34°14' E 135°08'0 0.0
2017-Nov-14 03:00N 34°14' E 135°08'0 0.0
2017-Nov-14 02:30N 34°14' E 135°08'0 0.0
2017-Nov-14 02:01N 34°14' E 135°08'0 0.0
2017-Nov-14 01:31N 34°14' E 135°08'0 0.0
2017-Nov-14 01:00N 34°14' E 135°08'0 0.0
2017-Nov-14 00:31N 34°14' E 135°08'0 0.0
2017-Nov-14 00:00N 34°14' E 135°08'2 3.0
2017-Nov-13 23:30N 34°15' E 135°06'0 0.0
2017-Nov-13 23:00N 34°15' E 135°06'0 0.1
2017-Nov-13 22:31N 34°15' E 135°06'5 9.1
2017-Nov-13 22:00N 34°11' E 135°03'  
2017-Nov-11 04:12N 34°09' E 135°02'212.4
2017-Nov-11 04:01N 34°11' E 135°03'5 9.2
2017-Nov-11 03:31N 34°14' E 135°07'1 1.7
2017-Nov-11 03:01N 34°14' E 135°08'0 0.0
2017-Nov-11 02:30N 34°14' E 135°08'0 0.0
2017-Nov-11 02:00N 34°14' E 135°08'0 0.0
2017-Nov-11 01:31N 34°14' E 135°08'0 0.0
2017-Nov-11 01:01N 34°14' E 135°08'0 0.0
2017-Nov-11 00:31N 34°14' E 135°08'0 0.0
2017-Nov-11 00:00N 34°14' E 135°08'0 0.0
2017-Nov-10 23:31N 34°14' E 135°08'0 0.0
2017-Nov-10 23:00N 34°14' E 135°08'0 0.0
2017-Nov-10 22:30N 34°14' E 135°08'0 0.0
2017-Nov-10 22:01N 34°14' E 135°08'0 0.0
2017-Nov-10 21:30N 34°14' E 135°08'0 0.0
2017-Nov-10 21:00N 34°14' E 135°08'0 0.0
2017-Nov-10 20:31N 34°14' E 135°08'0 0.0
2017-Nov-10 20:00N 34°14' E 135°08'0 0.0
2017-Nov-10 19:30N 34°14' E 135°08'0 0.0
2017-Nov-10 19:00N 34°14' E 135°08'0 0.0
2017-Nov-10 18:31N 34°14' E 135°08'0 0.0
2017-Nov-10 18:00N 34°14' E 135°08'0 0.0
2017-Nov-10 17:31N 34°14' E 135°08'0 0.0
2017-Nov-10 17:01N 34°14' E 135°08'0 0.0
2017-Nov-10 16:30N 34°14' E 135°08'0 0.0
2017-Nov-10 16:00N 34°14' E 135°08'0 0.0
2017-Nov-10 15:30N 34°14' E 135°08'0 0.0
2017-Nov-10 15:00N 34°14' E 135°08'1 1.0
2017-Nov-10 14:31N 34°14' E 135°07'4 8.6
2017-Nov-10 14:01N 34°11' E 135°03'5 0.2
2017-Nov-09 08:11N 34°07' E 135°01'313.1
2017-Nov-09 07:59N 34°09' E 135°02'611.7
2017-Nov-09 07:31N 34°14' E 135°05'2 3.9
2017-Nov-09 07:00N 34°14' E 135°08'0 0.0
2017-Nov-09 06:31N 34°14' E 135°08'0 0.0
2017-Nov-09 06:00N 34°14' E 135°08'0 0.0
2017-Nov-09 05:30N 34°14' E 135°08'0 0.0
2017-Nov-09 05:00N 34°14' E 135°08'0 0.0
2017-Nov-09 04:30N 34°14' E 135°08'0 0.0
2017-Nov-09 04:01N 34°14' E 135°08'  

Dump ship's entire track history